Urbandale, Iowa
Current Conditions -  °F | °C
As of 3:54 PM on Wednesday 28 Jan 2015 (Local Time) from KDSM Reporting Station
Overcast Overcast  
Wind Chill: 11°   Ceiling: 26000
Heat Index: 11°   Visibility: 10mi
Dew Point:   Wind: 14mph
Humidity: 57%   Direction: 150°SSE
Pressure: 29.7"   Gusts: NA
Location:  41.63°N, 93.71°W
Report Text: KDSM 282154Z 15012KT 10SM FEW170 SCT190 OVC260 11/03 A2970 RMK AO2 SLP060 T01110028
Loading
Personal Weather Stations






























Interactive Weather Map New forecast layout! Learn more

10-Day Weather Forecast

Advertisements
Track Severe Weather on mobile